createdAt,value
2023-03-22T00:01:45.466Z,119.48
2023-03-22T00:05:45.561Z,127.37
2023-03-22T00:09:45.626Z,120.76
2023-03-22T00:13:45.739Z,267.58
2023-03-22T00:17:45.932Z,268.43
2023-03-22T00:21:45.956Z,308.08
2023-03-22T00:25:46.081Z,188.14
2023-03-22T00:29:46.266Z,216.11
2023-03-22T00:33:46.410Z,121.36
2023-03-22T00:37:46.506Z,160.63
2023-03-22T00:41:46.665Z,183.52
2023-03-22T00:45:46.869Z,158.32
2023-03-22T00:49:46.906Z,95.74
2023-03-22T00:53:47.007Z,101.50
2023-03-22T00:57:47.115Z,83.01
2023-03-22T01:01:47.242Z,127.28
2023-03-22T01:05:47.367Z,136.48
2023-03-22T01:09:47.425Z,137.87
2023-03-22T01:13:47.467Z,135.97
2023-03-22T01:17:47.654Z,88.55
2023-03-22T01:21:47.691Z,97.03
2023-03-22T01:25:47.759Z,145.12
2023-03-22T01:29:47.818Z,103.47
2023-03-22T01:33:47.975Z,76.44
2023-03-22T01:37:48.192Z,72.77
2023-03-22T01:41:48.402Z,75.92
2023-03-22T01:45:48.650Z,67.56
2023-03-22T01:49:48.660Z,54.77
2023-03-22T01:53:48.774Z,48.22
2023-03-22T01:57:48.859Z,57.87
2023-03-22T02:01:48.952Z,41.55
2023-03-22T02:05:49.110Z,42.36
2023-03-22T02:09:49.187Z,42.64
2023-03-22T02:13:49.292Z,43.93
2023-03-22T02:17:49.406Z,25.60
2023-03-22T02:21:49.510Z,25.14
2023-03-22T02:25:49.652Z,35.81
2023-03-22T02:29:49.834Z,34.39
2023-03-22T02:33:49.890Z,45.51
2023-03-22T02:37:50.063Z,38.44
2023-03-22T02:41:50.177Z,32.97
2023-03-22T02:45:50.317Z,33.14
2023-03-22T02:49:50.367Z,39.70
2023-03-22T02:53:50.447Z,44.04
2023-03-22T02:57:50.625Z,42.95
2023-03-22T03:01:50.746Z,39.60
2023-03-22T03:05:50.754Z,40.60
2023-03-22T03:09:50.886Z,27.36
2023-03-22T03:13:51.013Z,28.44
2023-03-22T03:17:51.138Z,27.31
2023-03-22T03:21:51.212Z,31.20
2023-03-22T03:25:51.326Z,25.04
2023-03-22T03:29:51.457Z,40.16
2023-03-22T03:33:51.577Z,38.35
2023-03-22T03:37:51.813Z,39.30
2023-03-22T03:41:51.784Z,34.36
2023-03-22T03:45:51.992Z,39.84
2023-03-22T03:49:51.996Z,59.75
2023-03-22T03:53:52.020Z,77.11
2023-03-22T03:57:52.173Z,106.79
2023-03-22T04:01:52.357Z,53.17
2023-03-22T04:05:52.429Z,76.63
2023-03-22T04:09:52.567Z,70.79
2023-03-22T04:13:52.652Z,37.69
2023-03-22T04:17:52.839Z,46.01
2023-03-22T04:21:53.033Z,59.72
2023-03-22T04:25:53.140Z,88.00
2023-03-22T04:29:53.274Z,89.32
2023-03-22T04:33:53.477Z,74.84
2023-03-22T04:37:53.613Z,74.53
2023-03-22T04:41:53.818Z,72.49
2023-03-22T04:45:53.931Z,72.49
2023-03-22T04:49:53.995Z,67.35
2023-03-22T04:53:54.108Z,76.27
2023-03-22T04:57:54.223Z,83.94
2023-03-22T05:01:54.470Z,84.54
2023-03-22T05:05:54.381Z,85.46
2023-03-22T05:09:54.547Z,94.14
2023-03-22T05:13:54.663Z,101.88
2023-03-22T05:17:54.799Z,95.25
2023-03-22T05:21:54.827Z,64.26
2023-03-22T05:25:54.869Z,68.43
2023-03-22T05:29:55.024Z,60.65
2023-03-22T05:33:55.104Z,81.09
2023-03-22T05:37:55.229Z,104.87
2023-03-22T05:41:55.841Z,103.74
2023-03-22T05:45:55.379Z,91.61
2023-03-22T05:49:55.477Z,58.11
2023-03-22T05:53:55.680Z,66.40
2023-03-22T05:57:55.836Z,80.71
2023-03-22T06:01:55.960Z,76.96
2023-03-22T06:05:56.148Z,76.56
2023-03-22T06:09:56.196Z,92.89
2023-03-22T06:13:56.405Z,107.90
2023-03-22T06:17:56.483Z,119.42
2023-03-22T06:21:56.581Z,125.22
2023-03-22T06:25:56.683Z,150.00
2023-03-22T06:29:56.795Z,146.12
2023-03-22T06:33:56.830Z,130.82
2023-03-22T06:37:56.947Z,81.99
2023-03-22T06:41:57.064Z,105.58
2023-03-22T06:45:57.324Z,69.83
2023-03-22T06:49:57.365Z,54.82
2023-03-22T06:53:57.481Z,32.85
2023-03-22T06:57:57.621Z,35.16
2023-03-22T07:01:57.669Z,39.03
2023-03-22T07:05:57.770Z,40.97
2023-03-22T07:09:57.888Z,32.02
2023-03-22T07:13:58.067Z,36.52
2023-03-22T07:17:58.145Z,43.16
2023-03-22T07:21:58.276Z,29.02
2023-03-22T07:25:58.340Z,20.40
2023-03-22T07:29:58.427Z,18.34
2023-03-22T07:33:58.497Z,18.11
2023-03-22T07:37:58.574Z,13.88
2023-03-22T07:41:58.715Z,12.58
2023-03-22T07:45:58.981Z,11.15
2023-03-22T07:49:59.367Z,11.07
2023-03-22T07:53:59.151Z,12.59
2023-03-22T07:57:59.253Z,17.23
2023-03-22T08:01:59.366Z,9.66
2023-03-22T08:05:59.453Z,17.94
2023-03-22T08:09:59.604Z,16.36
2023-03-22T08:13:59.659Z,7.44
2023-03-22T08:17:59.754Z,5.06
2023-03-22T08:21:59.857Z,5.95
2023-03-22T08:26:00.012Z,5.21
2023-03-22T08:30:00.030Z,6.87
2023-03-22T08:34:00.173Z,2.59
2023-03-22T08:38:00.215Z,1.11
2023-03-22T08:42:00.321Z,1.40
2023-03-22T08:46:00.441Z,1.39
2023-03-22T08:50:00.521Z,3.03
2023-03-22T08:54:00.627Z,0.86
2023-03-22T08:58:00.745Z,0.71
2023-03-22T09:02:01.046Z,0.53
2023-03-22T09:06:01.032Z,3.97
2023-03-22T09:10:01.186Z,0.35
2023-03-22T09:14:01.278Z,0.66
2023-03-22T09:18:01.360Z,0.34
2023-03-22T09:22:01.498Z,0.47
2023-03-22T09:26:01.617Z,0.70
2023-03-22T09:30:01.659Z,9.42
2023-03-22T09:34:01.855Z,1.20
2023-03-22T09:38:01.976Z,0.81
2023-03-22T09:42:02.185Z,0.84
2023-03-22T09:46:02.290Z,0.52
2023-03-22T09:50:02.378Z,0.65
2023-03-22T09:54:02.497Z,0.71
2023-03-22T09:58:02.624Z,2.42
2023-03-22T10:02:03.055Z,0.74
2023-03-22T10:06:02.906Z,1.00
2023-03-22T10:10:02.967Z,0.46
2023-03-22T10:14:03.085Z,0.70
2023-03-22T10:18:03.217Z,0.56
2023-03-22T10:22:03.352Z,0.40
2023-03-22T10:26:03.455Z,0.48
2023-03-22T10:30:03.613Z,0.41
2023-03-22T10:34:03.681Z,0.48
2023-03-22T10:38:03.720Z,2.03
2023-03-22T10:42:03.872Z,0.67
2023-03-22T10:46:04.043Z,1.15
2023-03-22T10:50:04.227Z,0.61
2023-03-22T10:54:04.260Z,0.34
2023-03-22T10:58:04.384Z,0.34
2023-03-22T11:02:04.626Z,0.91
2023-03-22T11:06:04.646Z,4.30
2023-03-22T11:10:04.852Z,9.99
2023-03-22T11:14:04.962Z,6.47
2023-03-22T11:18:05.089Z,2.01
2023-03-22T11:22:05.159Z,0.66
2023-03-22T11:26:05.317Z,1.49
2023-03-22T11:30:05.438Z,3.48
2023-03-22T11:34:05.505Z,7.00
2023-03-22T11:38:05.654Z,0.61
2023-03-22T11:42:05.767Z,2.94
2023-03-22T11:46:05.874Z,4.51
2023-03-22T11:50:06.891Z,1.53
2023-03-22T11:54:06.045Z,1.16
2023-03-22T11:58:06.134Z,0.66
2023-03-22T12:02:06.309Z,0.66
2023-03-22T12:06:06.493Z,1.44
2023-03-22T12:10:06.619Z,0.96
2023-03-22T12:14:06.651Z,0.34
2023-03-22T12:18:07.960Z,1.22
2023-03-22T12:22:06.886Z,0.58
2023-03-22T12:26:06.976Z,1.86
2023-03-22T12:30:07.106Z,1.05
2023-03-22T12:34:07.256Z,1.35
2023-03-22T12:38:07.311Z,2.85
2023-03-22T12:42:07.391Z,4.11
2023-03-22T12:46:07.505Z,3.23
2023-03-22T12:50:07.632Z,2.88
2023-03-22T12:54:07.716Z,2.72
2023-03-22T12:58:07.859Z,3.23
2023-03-22T13:02:08.020Z,3.89
2023-03-22T13:06:08.098Z,4.40
2023-03-22T13:10:08.207Z,4.80
2023-03-22T13:14:08.270Z,6.69
2023-03-22T13:18:08.453Z,14.80
2023-03-22T13:22:08.558Z,17.60
2023-03-22T13:26:08.631Z,26.62
2023-03-22T13:30:08.769Z,35.58
2023-03-22T13:34:08.922Z,26.08
2023-03-22T13:38:09.023Z,57.59
2023-03-22T13:42:09.065Z,46.49
2023-03-22T13:46:09.179Z,22.42
2023-03-22T13:50:09.198Z,22.97
2023-03-22T13:54:09.272Z,47.68
2023-03-22T13:58:09.402Z,16.58
2023-03-22T14:02:09.575Z,7.99
2023-03-22T14:06:09.665Z,13.28
2023-03-22T14:10:09.753Z,21.95
2023-03-22T14:14:09.838Z,24.35
2023-03-22T14:18:09.945Z,142.82
2023-03-22T14:47:10.276Z,0.50
2023-03-22T14:51:10.267Z,0.34
2023-03-22T14:55:10.208Z,0.34
2023-03-22T14:59:10.159Z,1.64
2023-03-22T15:03:11.506Z,8.90
2023-03-22T15:07:10.088Z,1.89
2023-03-22T15:11:11.527Z,1.99
2023-03-22T15:15:10.002Z,0.49
2023-03-22T15:19:10.350Z,0.42
2023-03-22T15:23:10.114Z,2.62
2023-03-22T15:27:10.327Z,0.58
2023-03-22T15:31:10.283Z,1.77
2023-03-22T15:35:10.364Z,2.93
2023-03-22T15:39:10.494Z,1.62
2023-03-22T15:43:10.606Z,155.38
2023-03-22T15:47:10.623Z,487.15
2023-03-22T15:51:10.764Z,1000.00
2023-03-22T15:55:10.857Z,12.76
2023-03-22T15:59:10.987Z,18.63
2023-03-22T16:03:11.220Z,22.14
2023-03-22T16:07:11.274Z,1000.00
2023-03-22T16:11:11.302Z,814.11
2023-03-22T16:15:11.464Z,346.59
2023-03-22T16:19:11.653Z,457.05
2023-03-22T16:23:11.685Z,488.50
2023-03-22T16:27:11.941Z,497.53
2023-03-22T16:31:12.149Z,1000.00
2023-03-22T16:35:12.216Z,1000.00
2023-03-22T16:39:12.417Z,614.58
2023-03-22T16:43:12.573Z,1000.00
2023-03-22T16:47:12.750Z,129.09
2023-03-22T16:51:12.859Z,75.19
2023-03-22T16:55:12.965Z,618.40
2023-03-22T16:59:13.058Z,737.71
2023-03-22T17:03:13.229Z,1000.00
2023-03-22T17:07:13.356Z,1000.00
2023-03-22T17:11:13.444Z,1000.00
2023-03-22T17:15:13.508Z,1000.00
2023-03-22T17:19:13.686Z,224.88
2023-03-22T17:23:13.737Z,28.01
2023-03-22T17:27:13.862Z,1000.00
2023-03-22T17:31:14.018Z,1000.00
2023-03-22T17:35:14.158Z,1000.00
2023-03-22T17:39:32.982Z,976.46
2023-03-22T17:43:15.247Z,1000.00
2023-03-22T17:51:14.206Z,1000.00
2023-03-22T17:55:19.650Z,1000.00
2023-03-22T17:59:15.105Z,1000.00
2023-03-22T18:03:14.089Z,1000.00
2023-03-22T18:07:14.033Z,1000.00
2023-03-22T18:11:14.065Z,1000.00
2023-03-22T18:15:14.183Z,1000.00
2023-03-22T18:19:14.321Z,1000.00
2023-03-22T18:23:14.444Z,1000.00
2023-03-22T18:27:15.860Z,1000.00
2023-03-22T18:31:14.687Z,1000.00
2023-03-22T18:35:14.830Z,1000.00
2023-03-22T18:39:55.208Z,1000.00
2023-03-22T18:43:15.855Z,1000.00
2023-03-22T18:47:14.862Z,1000.00
2023-03-22T18:51:14.818Z,1000.00
2023-03-22T18:55:28.904Z,1000.00
2023-03-22T18:59:15.859Z,931.47
2023-03-22T19:03:14.776Z,946.30
2023-03-22T19:07:19.960Z,427.38
2023-03-22T19:11:15.691Z,304.72
2023-03-22T19:19:14.653Z,318.80
2023-03-22T19:23:14.593Z,424.76
2023-03-22T19:27:18.339Z,395.08
2023-03-22T19:31:15.520Z,210.09
2023-03-22T19:35:14.486Z,219.16
2023-03-22T19:39:15.192Z,679.41
2023-03-22T19:43:14.548Z,606.29
2023-03-22T19:47:14.675Z,474.76
2023-03-22T19:51:14.799Z,261.01
2023-03-22T19:55:14.837Z,163.88
2023-03-22T19:59:16.981Z,567.29
2023-03-22T20:03:14.954Z,212.03
2023-03-22T20:07:14.918Z,142.78
2023-03-22T20:11:27.615Z,224.17
2023-03-22T20:15:15.822Z,149.60
2023-03-22T20:19:14.869Z,146.75
2023-03-22T20:23:14.770Z,130.57
2023-03-22T20:27:15.549Z,185.05
2023-03-22T20:31:14.899Z,106.52
2023-03-22T20:35:15.022Z,87.49
2023-03-22T20:39:15.095Z,77.53
2023-03-22T20:43:15.216Z,76.69
2023-03-22T20:47:15.341Z,90.38
2023-03-22T20:51:15.486Z,214.05
2023-03-22T20:55:15.653Z,157.22
2023-03-22T20:59:15.779Z,78.19
2023-03-22T21:03:15.839Z,63.24
2023-03-22T21:07:15.893Z,76.67
2023-03-22T21:11:15.997Z,87.93
2023-03-22T21:15:16.126Z,114.74
2023-03-22T21:19:16.926Z,107.32
2023-03-22T21:23:16.297Z,91.37
2023-03-22T21:27:16.439Z,74.44
2023-03-22T21:31:16.557Z,75.70
2023-03-22T21:35:16.603Z,116.49
2023-03-22T21:39:16.767Z,96.57
2023-03-22T21:43:16.821Z,74.52
2023-03-22T21:47:16.986Z,77.84
2023-03-22T21:51:17.079Z,61.45
2023-03-22T21:55:17.229Z,28.94
2023-03-22T21:59:17.310Z,33.64
2023-03-22T22:03:17.454Z,127.66
2023-03-22T22:07:17.574Z,87.49
2023-03-22T22:11:17.708Z,83.35
2023-03-22T22:15:17.833Z,88.82
2023-03-22T22:19:18.061Z,95.83
2023-03-22T22:23:18.063Z,141.53
2023-03-22T22:27:18.217Z,104.69
2023-03-22T22:31:18.404Z,126.14
2023-03-22T22:35:18.506Z,88.46
2023-03-22T22:39:18.658Z,105.31
2023-03-22T22:43:18.730Z,79.64
2023-03-22T22:47:18.865Z,49.87
2023-03-22T22:51:18.933Z,61.63
2023-03-22T22:55:19.100Z,55.96
2023-03-22T22:59:19.192Z,81.60
2023-03-22T23:03:19.291Z,66.66
2023-03-22T23:07:19.404Z,93.47
2023-03-22T23:11:19.479Z,33.74
2023-03-22T23:15:27.069Z,29.50
2023-03-22T23:19:20.601Z,33.53
2023-03-22T23:23:19.569Z,33.85
2023-03-22T23:27:19.508Z,29.44
2023-03-22T23:31:19.694Z,28.04
2023-03-22T23:35:19.806Z,58.19
2023-03-22T23:39:19.874Z,72.36
2023-03-22T23:43:19.969Z,54.71
2023-03-22T23:47:20.173Z,46.63
2023-03-22T23:51:20.282Z,54.96
2023-03-22T23:55:20.421Z,52.31
2023-03-22T23:59:20.572Z,180.28
